sensor_id;sensor_type;location;lat;lon;timestamp;pressure;altitude;pressure_sealevel;temperature;humidity
30182;BME280;16990;49.056;9.240;2022-09-25T00:01:07;98354.94;;;12.54;100.00
30182;BME280;16990;49.056;9.240;2022-09-25T00:03:54;98355.75;;;12.55;100.00
30182;BME280;16990;49.056;9.240;2022-09-25T00:06:41;98349.34;;;12.61;100.00
30182;BME280;16990;49.056;9.240;2022-09-25T00:09:28;98350.16;;;12.62;100.00
30182;BME280;16990;49.056;9.240;2022-09-25T00:12:15;98360.63;;;12.63;100.00
30182;BME280;16990;49.056;9.240;2022-09-25T00:15:06;98359.59;;;12.64;100.00
30182;BME280;16990;49.056;9.240;2022-09-25T00:17:53;98354.50;;;12.68;100.00
30182;BME280;16990;49.056;9.240;2022-09-25T00:20:40;98347.22;;;12.63;100.00
30182;BME280;16990;49.056;9.240;2022-09-25T00:23:26;98343.78;;;12.68;100.00
30182;BME280;16990;49.056;9.240;2022-09-25T00:26:15;98347.72;;;12.55;100.00
30182;BME280;16990;49.056;9.240;2022-09-25T00:29:03;98349.56;;;12.54;100.00
30182;BME280;16990;49.056;9.240;2022-09-25T00:31:53;98356.03;;;12.59;100.00
30182;BME280;16990;49.056;9.240;2022-09-25T00:34:40;98345.03;;;12.55;100.00
30182;BME280;16990;49.056;9.240;2022-09-25T00:37:27;98340.47;;;12.55;100.00
30182;BME280;16990;49.056;9.240;2022-09-25T00:40:14;98332.44;;;12.55;100.00
30182;BME280;16990;49.056;9.240;2022-09-25T00:43:01;98332.38;;;12.50;100.00
30182;BME280;16990;49.056;9.240;2022-09-25T00:45:48;98331.03;;;12.48;100.00
30182;BME280;16990;49.056;9.240;2022-09-25T00:48:41;98327.22;;;12.44;100.00
30182;BME280;16990;49.056;9.240;2022-09-25T00:51:34;98332.06;;;12.47;100.00
30182;BME280;16990;49.056;9.240;2022-09-25T00:54:26;98330.16;;;12.42;100.00
30182;BME280;16990;49.056;9.240;2022-09-25T00:57:18;98327.50;;;12.47;100.00
30182;BME280;16990;49.056;9.240;2022-09-25T01:00:08;98324.03;;;12.47;100.00
30182;BME280;16990;49.056;9.240;2022-09-25T01:02:56;98320.84;;;12.50;100.00
30182;BME280;16990;49.056;9.240;2022-09-25T01:05:45;98319.75;;;12.46;100.00
30182;BME280;16990;49.056;9.240;2022-09-25T01:08:33;98326.72;;;12.47;100.00
30182;BME280;16990;49.056;9.240;2022-09-25T01:11:20;98319.22;;;12.49;100.00
30182;BME280;16990;49.056;9.240;2022-09-25T01:14:08;98321.91;;;12.49;100.00
30182;BME280;16990;49.056;9.240;2022-09-25T01:17:01;98333.41;;;12.76;100.00
30182;BME280;16990;49.056;9.240;2022-09-25T01:20:01;98325.94;;;12.84;100.00
30182;BME280;16990;49.056;9.240;2022-09-25T01:23:07;98321.13;;;12.53;100.00
30182;BME280;16990;49.056;9.240;2022-09-25T01:26:08;98320.75;;;12.40;100.00
30182;BME280;16990;49.056;9.240;2022-09-25T01:29:05;98311.75;;;12.51;100.00
30182;BME280;16990;49.056;9.240;2022-09-25T01:31:59;98319.53;;;12.52;100.00
30182;BME280;16990;49.056;9.240;2022-09-25T01:34:52;98324.00;;;12.42;100.00
30182;BME280;16990;49.056;9.240;2022-09-25T01:37:45;98319.00;;;12.55;100.00
30182;BME280;16990;49.056;9.240;2022-09-25T01:40:37;98319.16;;;12.39;100.00
30182;BME280;16990;49.056;9.240;2022-09-25T01:43:30;98307.91;;;12.42;100.00
30182;BME280;16990;49.056;9.240;2022-09-25T01:46:24;98316.84;;;12.52;100.00
30182;BME280;16990;49.056;9.240;2022-09-25T01:49:19;98314.91;;;12.43;100.00
30182;BME280;16990;49.056;9.240;2022-09-25T01:52:13;98331.88;;;12.21;100.00
30182;BME280;16990;49.056;9.240;2022-09-25T01:55:06;98313.59;;;12.18;100.00
30182;BME280;16990;49.056;9.240;2022-09-25T01:57:57;98316.66;;;12.32;100.00
30182;BME280;16990;49.056;9.240;2022-09-25T02:00:50;98316.28;;;12.18;100.00
30182;BME280;16990;49.056;9.240;2022-09-25T02:03:45;98317.03;;;12.13;100.00
30182;BME280;16990;49.056;9.240;2022-09-25T02:06:36;98320.75;;;12.40;100.00
30182;BME280;16990;49.056;9.240;2022-09-25T02:09:30;98321.13;;;12.53;100.00
30182;BME280;16990;49.056;9.240;2022-09-25T02:12:23;98317.16;;;12.61;100.00
30182;BME280;16990;49.056;9.240;2022-09-25T02:15:15;98317.22;;;12.34;100.00
30182;BME280;16990;49.056;9.240;2022-09-25T02:18:07;98303.75;;;12.61;100.00
30182;BME280;16990;49.056;9.240;2022-09-25T02:21:33;98322.75;;;12.22;100.00
30182;BME280;16990;49.056;9.240;2022-09-25T02:24:28;98312.78;;;12.18;100.00
30182;BME280;16990;49.056;9.240;2022-09-25T02:27:20;98321.06;;;12.16;100.00
30182;BME280;16990;49.056;9.240;2022-09-25T02:30:08;98315.47;;;12.18;100.00
30182;BME280;16990;49.056;9.240;2022-09-25T02:32:56;98307.44;;;12.18;100.00
30182;BME280;16990;49.056;9.240;2022-09-25T02:35:43;98312.56;;;12.19;100.00
30182;BME280;16990;49.056;9.240;2022-09-25T02:38:32;98311.47;;;12.20;100.00
30182;BME280;16990;49.056;9.240;2022-09-25T02:41:30;98316.56;;;12.17;100.00
30182;BME280;16990;49.056;9.240;2022-09-25T02:44:30;98305.22;;;12.09;100.00
30182;BME280;16990;49.056;9.240;2022-09-25T02:47:23;98317.88;;;12.14;100.00
30182;BME280;16990;49.056;9.240;2022-09-25T02:50:22;98309.88;;;12.19;100.00
30182;BME280;16990;49.056;9.240;2022-09-25T02:53:15;98309.94;;;12.29;100.00
30182;BME280;16990;49.056;9.240;2022-09-25T02:56:11;98305.09;;;12.26;100.00
30182;BME280;16990;49.056;9.240;2022-09-25T02:59:02;98311.75;;;12.19;100.00
30182;BME280;16990;49.056;9.240;2022-09-25T03:01:52;98310.91;;;12.18;100.00
30182;BME280;16990;49.056;9.240;2022-09-25T03:04:43;98303.44;;;12.20;100.00
30182;BME280;16990;49.056;9.240;2022-09-25T03:07:32;98306.03;;;12.10;100.00
30182;BME280;16990;49.056;9.240;2022-09-25T03:10:39;98311.69;;;12.13;100.00
30182;BME280;16990;49.056;9.240;2022-09-25T03:13:32;98308.34;;;12.28;100.00
30182;BME280;16990;49.056;9.240;2022-09-25T03:16:26;98296.19;;;12.21;100.00
30182;BME280;16990;49.056;9.240;2022-09-25T03:19:18;98291.91;;;12.20;100.00
30182;BME280;16990;49.056;9.240;2022-09-25T03:22:05;98308.25;;;12.18;100.00
30182;BME280;16990;49.056;9.240;2022-09-25T03:24:52;98295.41;;;12.20;100.00
30182;BME280;16990;49.056;9.240;2022-09-25T03:27:39;98289.50;;;12.23;100.00
30182;BME280;16990;49.056;9.240;2022-09-25T03:30:27;98297.88;;;12.27;100.00
30182;BME280;16990;49.056;9.240;2022-09-25T03:33:14;98301.50;;;12.16;100.00
30182;BME280;16990;49.056;9.240;2022-09-25T03:36:05;98301.03;;;12.19;100.00
30182;BME280;16990;49.056;9.240;2022-09-25T03:38:54;98295.66;;;12.19;100.00
30182;BME280;16990;49.056;9.240;2022-09-25T03:41:43;98296.47;;;12.19;100.00
30182;BME280;16990;49.056;9.240;2022-09-25T03:44:30;98293.28;;;12.22;100.00
30182;BME280;16990;49.056;9.240;2022-09-25T03:47:19;98291.16;;;12.24;100.00
30182;BME280;16990;49.056;9.240;2022-09-25T03:50:07;98289.28;;;12.57;100.00
30182;BME280;16990;49.056;9.240;2022-09-25T03:52:54;98296.06;;;12.38;100.00
30182;BME280;16990;49.056;9.240;2022-09-25T03:55:41;98298.72;;;12.32;100.00
30182;BME280;16990;49.056;9.240;2022-09-25T03:58:28;98303.78;;;12.29;100.00
30182;BME280;16990;49.056;9.240;2022-09-25T04:01:16;98301.34;;;12.27;100.00
30182;BME280;16990;49.056;9.240;2022-09-25T04:04:05;98294.16;;;12.33;100.00
30182;BME280;16990;49.056;9.240;2022-09-25T04:06:52;98300.06;;;12.35;100.00
30182;BME280;16990;49.056;9.240;2022-09-25T04:09:39;98298.22;;;12.36;100.00
30182;BME280;16990;49.056;9.240;2022-09-25T04:12:26;98298.50;;;12.39;100.00
30182;BME280;16990;49.056;9.240;2022-09-25T04:15:13;98310.00;;;12.34;100.00
30182;BME280;16990;49.056;9.240;2022-09-25T04:18:00;98311.88;;;12.34;100.00
30182;BME280;16990;49.056;9.240;2022-09-25T04:20:49;98305.19;;;12.37;100.00
30182;BME280;16990;49.056;9.240;2022-09-25T04:23:36;98304.06;;;12.32;100.00
30182;BME280;16990;49.056;9.240;2022-09-25T04:26:23;98297.66;;;12.33;100.00
30182;BME280;16990;49.056;9.240;2022-09-25T04:29:10;98298.22;;;12.36;100.00
30182;BME280;16990;49.056;9.240;2022-09-25T04:32:00;98300.03;;;12.30;100.00
30182;BME280;16990;49.056;9.240;2022-09-25T04:35:04;98298.16;;;12.30;100.00
30182;BME280;16990;49.056;9.240;2022-09-25T04:37:53;98296.31;;;12.31;100.00
30182;BME280;16990;49.056;9.240;2022-09-25T04:40:40;98308.63;;;12.32;100.00
30182;BME280;16990;49.056;9.240;2022-09-25T04:43:27;98294.44;;;12.31;100.00
30182;BME280;16990;49.056;9.240;2022-09-25T04:46:14;98299.28;;;12.34;100.00
30182;BME280;16990;49.056;9.240;2022-09-25T04:49:02;98299.91;;;12.47;100.00
30182;BME280;16990;49.056;9.240;2022-09-25T04:51:49;98299.81;;;12.37;100.00
30182;BME280;16990;49.056;9.240;2022-09-25T04:54:37;98300.34;;;12.33;100.00
30182;BME280;16990;49.056;9.240;2022-09-25T04:57:24;98308.34;;;12.28;100.00
30182;BME280;16990;49.056;9.240;2022-09-25T05:00:12;98294.97;;;12.33;100.00
30182;BME280;16990;49.056;9.240;2022-09-25T05:03:01;98294.16;;;12.33;100.00
30182;BME280;16990;49.056;9.240;2022-09-25T05:05:49;98290.66;;;12.32;100.00
30182;BME280;16990;49.056;9.240;2022-09-25T05:08:36;98296.03;;;12.32;100.00
30182;BME280;16990;49.056;9.240;2022-09-25T05:11:24;98297.63;;;12.28;100.00
30182;BME280;16990;49.056;9.240;2022-09-25T05:14:11;98290.34;;;12.24;100.00
30182;BME280;16990;49.056;9.240;2022-09-25T05:16:58;98292.19;;;12.23;100.00
30182;BME280;16990;49.056;9.240;2022-09-25T05:19:45;98289.03;;;12.26;100.00
30182;BME280;16990;49.056;9.240;2022-09-25T05:22:33;98292.25;;;12.28;100.00
30182;BME280;16990;49.056;9.240;2022-09-25T05:25:19;98290.88;;;12.26;100.00
30182;BME280;16990;49.056;9.240;2022-09-25T05:28:11;98294.38;;;12.26;100.00
30182;BME280;16990;49.056;9.240;2022-09-25T05:30:58;98293.88;;;12.29;100.00
30182;BME280;16990;49.056;9.240;2022-09-25T05:33:47;98308.34;;;12.28;100.00
30182;BME280;16990;49.056;9.240;2022-09-25T05:36:34;98299.81;;;12.37;100.00
30182;BME280;16990;49.056;9.240;2022-09-25T05:39:21;98305.16;;;12.31;100.00
30182;BME280;16990;49.056;9.240;2022-09-25T05:42:08;98304.59;;;12.29;100.00
30182;BME280;16990;49.056;9.240;2022-09-25T05:44:56;98294.94;;;12.28;100.00
30182;BME280;16990;49.056;9.240;2022-09-25T05:47:43;98293.56;;;12.26;100.00
30182;BME280;16990;49.056;9.240;2022-09-25T05:50:31;98297.88;;;12.27;100.00
30182;BME280;16990;49.056;9.240;2022-09-25T05:53:18;98296.75;;;12.23;100.00
30182;BME280;16990;49.056;9.240;2022-09-25T05:56:05;98293.88;;;12.29;100.00
30182;BME280;16990;49.056;9.240;2022-09-25T05:58:52;98301.94;;;12.34;100.00
30182;BME280;16990;49.056;9.240;2022-09-25T06:01:41;98308.34;;;12.28;100.00
30182;BME280;16990;49.056;9.240;2022-09-25T06:04:28;98301.66;;;12.31;100.00
30182;BME280;16990;49.056;9.240;2022-09-25T06:07:15;98302.72;;;12.30;100.00
30182;BME280;16990;49.056;9.240;2022-09-25T06:10:02;98303.59;;;12.36;100.00
30182;BME280;16990;49.056;9.240;2022-09-25T06:12:49;98293.31;;;12.27;100.00
30182;BME280;16990;49.056;9.240;2022-09-25T06:15:40;98290.44;;;12.34;100.00
30182;BME280;16990;49.056;9.240;2022-09-25T06:18:28;98302.47;;;12.31;100.00
30182;BME280;16990;49.056;9.240;2022-09-25T06:21:15;98300.91;;;12.36;100.00
30182;BME280;16990;49.056;9.240;2022-09-25T06:24:02;98301.66;;;12.31;100.00
30182;BME280;16990;49.056;9.240;2022-09-25T06:26:49;98293.88;;;12.29;100.00
30182;BME280;16990;49.056;9.240;2022-09-25T06:29:36;98304.06;;;12.32;100.00
30182;BME280;16990;49.056;9.240;2022-09-25T06:32:23;98305.84;;;12.54;100.00
30182;BME280;16990;49.056;9.240;2022-09-25T06:35:11;98301.78;;;12.84;100.00
30182;BME280;16990;49.056;9.240;2022-09-25T06:38:00;98304.66;;;12.40;100.00
30182;BME280;16990;49.056;9.240;2022-09-25T06:40:47;98303.81;;;12.34;100.00
30182;BME280;16990;49.056;9.240;2022-09-25T06:43:34;98296.25;;;12.58;100.00
30182;BME280;16990;49.056;9.240;2022-09-25T06:46:21;98304.63;;;12.34;100.00
30182;BME280;16990;49.056;9.240;2022-09-25T06:49:10;98309.47;;;12.38;100.00
30182;BME280;16990;49.056;9.240;2022-09-25T06:51:59;98322.78;;;12.27;100.00
30182;BME280;16990;49.056;9.240;2022-09-25T06:54:46;98314.25;;;12.30;100.00
30182;BME280;16990;49.056;9.240;2022-09-25T06:57:33;98318.56;;;12.31;100.00
30182;BME280;16990;49.056;9.240;2022-09-25T07:00:21;98320.69;;;12.29;100.00
30182;BME280;16990;49.056;9.240;2022-09-25T07:03:08;98324.88;;;12.20;100.00
30182;BME280;16990;49.056;9.240;2022-09-25T07:06:14;98316.56;;;12.17;100.00
30182;BME280;16990;49.056;9.240;2022-09-25T07:09:02;98317.88;;;12.14;100.00
30182;BME280;16990;49.056;9.240;2022-09-25T07:11:49;98319.00;;;12.23;100.00
30182;BME280;16990;49.056;9.240;2022-09-25T07:14:37;98323.91;;;12.31;100.00
30182;BME280;16990;49.056;9.240;2022-09-25T07:17:26;98329.28;;;12.31;100.00
30182;BME280;16990;49.056;9.240;2022-09-25T07:20:13;98323.16;;;12.36;100.00
30182;BME280;16990;49.056;9.240;2022-09-25T07:23:01;98329.06;;;12.38;100.00
30182;BME280;16990;49.056;9.240;2022-09-25T07:25:50;98332.50;;;12.33;100.00
30182;BME280;16990;49.056;9.240;2022-09-25T07:28:38;98336.75;;;12.29;100.00
30182;BME280;16990;49.056;9.240;2022-09-25T07:31:27;98331.19;;;12.36;100.00
30182;BME280;16990;49.056;9.240;2022-09-25T07:34:14;98326.28;;;12.60;100.00
30182;BME280;16990;49.056;9.240;2022-09-25T07:37:01;98330.41;;;12.36;100.00
30182;BME280;16990;49.056;9.240;2022-09-25T07:39:47;98330.47;;;12.46;100.00
30182;BME280;16990;49.056;9.240;2022-09-25T07:42:36;98330.72;;;12.44;100.00
30182;BME280;16990;49.056;9.240;2022-09-25T07:45:22;98326.72;;;12.47;100.00
30182;BME280;16990;49.056;9.240;2022-09-25T07:48:09;98330.75;;;12.49;100.00
30182;BME280;16990;49.056;9.240;2022-09-25T07:50:58;98328.72;;;12.29;100.00
30182;BME280;16990;49.056;9.240;2022-09-25T07:53:45;98332.50;;;12.33;100.00
30182;BME280;16990;49.056;9.240;2022-09-25T07:56:32;98323.75;;;12.81;100.00
30182;BME280;16990;49.056;9.240;2022-09-25T07:59:21;98329.69;;;12.50;100.00
30182;BME280;16990;49.056;9.240;2022-09-25T08:02:08;98332.88;;;12.47;100.00
30182;BME280;16990;49.056;9.240;2022-09-25T08:04:55;98332.00;;;12.37;100.00
30182;BME280;16990;49.056;9.240;2022-09-25T08:07:42;98337.88;;;12.33;100.00
30182;BME280;16990;49.056;9.240;2022-09-25T08:10:29;98330.28;;;12.25;100.00
30182;BME280;16990;49.056;9.240;2022-09-25T08:13:16;98338.19;;;12.42;100.00
30182;BME280;16990;49.056;9.240;2022-09-25T08:16:09;98334.31;;;12.28;100.00
30182;BME280;16990;49.056;9.240;2022-09-25T08:18:57;98334.31;;;12.28;100.00
30182;BME280;16990;49.056;9.240;2022-09-25T08:21:44;98336.91;;;12.18;100.00
30182;BME280;16990;49.056;9.240;2022-09-25T08:24:33;98339.34;;;12.19;100.00
30182;BME280;16990;49.056;9.240;2022-09-25T08:27:24;98335.25;;;12.11;100.00
30182;BME280;16990;49.056;9.240;2022-09-25T08:30:11;98341.44;;;12.12;100.00
30182;BME280;16990;49.056;9.240;2022-09-25T08:33:01;98346.19;;;12.05;100.00
30182;BME280;16990;49.056;9.240;2022-09-25T08:35:53;98340.19;;;12.25;100.00
30182;BME280;16990;49.056;9.240;2022-09-25T08:38:41;98332.88;;;12.15;100.00
30182;BME280;16990;49.056;9.240;2022-09-25T08:41:30;98334.59;;;12.26;100.00
30182;BME280;16990;49.056;9.240;2022-09-25T08:44:23;98331.19;;;12.09;100.00
30182;BME280;16990;49.056;9.240;2022-09-25T08:47:14;98337.28;;;12.26;100.00
30182;BME280;16990;49.056;9.240;2022-09-25T08:50:24;98329.13;;;12.16;100.00
30182;BME280;16990;49.056;9.240;2022-09-25T08:53:16;98321.59;;;12.13;100.00
30182;BME280;16990;49.056;9.240;2022-09-25T08:56:05;98314.13;;;12.15;100.00
30182;BME280;16990;49.056;9.240;2022-09-25T08:59:05;98322.00;;;12.27;100.00
30182;BME280;16990;49.056;9.240;2022-09-25T09:01:58;98328.97;;;12.28;100.00
30182;BME280;16990;49.056;9.240;2022-09-25T09:04:48;98319.66;;;12.36;100.00
30182;BME280;16990;49.056;9.240;2022-09-25T09:07:39;98315.94;;;12.42;100.00
30182;BME280;16990;49.056;9.240;2022-09-25T09:10:33;98320.25;;;12.43;100.00
30182;BME280;16990;49.056;9.240;2022-09-25T09:13:24;98315.50;;;12.50;100.00
30182;BME280;16990;49.056;9.240;2022-09-25T09:16:20;98307.53;;;12.60;100.00
30182;BME280;16990;49.056;9.240;2022-09-25T09:19:10;98319.47;;;12.85;100.00
30182;BME280;16990;49.056;9.240;2022-09-25T09:22:02;98315.69;;;12.81;100.00
30182;BME280;16990;49.056;9.240;2022-09-25T09:24:57;98318.25;;;13.03;100.00
30182;BME280;16990;49.056;9.240;2022-09-25T09:27:59;98324.22;;;13.10;100.00
30182;BME280;16990;49.056;9.240;2022-09-25T09:30:56;98319.16;;;13.24;100.00
30182;BME280;16990;49.056;9.240;2022-09-25T09:33:50;98321.19;;;13.01;100.00
30182;BME280;16990;49.056;9.240;2022-09-25T09:36:45;98318.47;;;12.91;100.00
30182;BME280;16990;49.056;9.240;2022-09-25T09:39:38;98316.84;;;12.95;100.00
30182;BME280;16990;49.056;9.240;2022-09-25T09:42:35;98321.72;;;12.98;100.00
30182;BME280;16990;49.056;9.240;2022-09-25T09:45:31;98312.66;;;13.09;100.00
30182;BME280;16990;49.056;9.240;2022-09-25T09:48:28;98316.34;;;12.98;100.00
30182;BME280;16990;49.056;9.240;2022-09-25T09:51:20;98318.75;;;12.99;100.00
30182;BME280;16990;49.056;9.240;2022-09-25T09:54:11;98310.97;;;12.93;100.00
30182;BME280;16990;49.056;9.240;2022-09-25T09:57:00;98314.72;;;12.97;100.00
30182;BME280;16990;49.056;9.240;2022-09-25T09:59:56;98317.91;;;12.89;100.00
30182;BME280;16990;49.056;9.240;2022-09-25T10:02:49;98320.09;;;12.97;100.00
30182;BME280;16990;49.056;9.240;2022-09-25T10:05:41;98311.50;;;12.95;100.00
30182;BME280;16990;49.056;9.240;2022-09-25T10:08:29;98315.03;;;13.01;100.00
30182;BME280;16990;49.056;9.240;2022-09-25T10:11:17;98315.91;;;13.16;100.00
30182;BME280;16990;49.056;9.240;2022-09-25T10:14:05;98322.31;;;13.05;100.00
30182;BME280;16990;49.056;9.240;2022-09-25T10:16:58;98315.84;;;13.01;100.00
30182;BME280;16990;49.056;9.240;2022-09-25T10:19:49;98317.00;;;13.20;100.00
30182;BME280;16990;49.056;9.240;2022-09-25T10:22:39;98311.78;;;13.46;100.00
30182;BME280;16990;49.056;9.240;2022-09-25T10:25:36;98308.81;;;13.48;100.00
30182;BME280;16990;49.056;9.240;2022-09-25T10:28:26;98309.94;;;13.52;100.00
30182;BME280;16990;49.056;9.240;2022-09-25T10:31:15;98306.78;;;13.75;100.00
30182;BME280;16990;49.056;9.240;2022-09-25T10:34:07;98312.13;;;13.70;100.00
30182;BME280;16990;49.056;9.240;2022-09-25T10:37:13;98303.84;;;13.77;100.00
30182;BME280;16990;49.056;9.240;2022-09-25T10:40:06;98302.50;;;13.79;100.00
30182;BME280;16990;49.056;9.240;2022-09-25T10:43:05;98289.84;;;13.70;100.00
30182;BME280;16990;49.056;9.240;2022-09-25T10:46:09;98298.63;;;13.50;100.00
30182;BME280;16990;49.056;9.240;2022-09-25T10:49:13;98304.84;;;13.55;100.00
30182;BME280;16990;49.056;9.240;2022-09-25T10:52:18;98305.97;;;13.75;100.00
30182;BME280;16990;49.056;9.240;2022-09-25T10:55:12;98303.53;;;13.68;100.00
30182;BME280;16990;49.056;9.240;2022-09-25T10:58:07;98302.72;;;13.63;100.00
30182;BME280;16990;49.056;9.240;2022-09-25T11:00:58;98302.75;;;13.78;100.00
30182;BME280;16990;49.056;9.240;2022-09-25T11:03:50;98315.97;;;14.00;100.00
30182;BME280;16990;49.056;9.240;2022-09-25T11:06:42;98312.47;;;13.84;100.00
30182;BME280;16990;49.056;9.240;2022-09-25T11:09:31;98315.16;;;13.99;100.00
30182;BME280;16990;49.056;9.240;2022-09-25T11:12:21;98299.81;;;13.79;100.00
30182;BME280;16990;49.056;9.240;2022-09-25T11:15:16;98309.16;;;13.67;100.00
30182;BME280;16990;49.056;9.240;2022-09-25T11:18:04;98315.94;;;13.79;100.00
30182;BME280;16990;49.056;9.240;2022-09-25T11:21:00;98308.13;;;13.73;100.00
30182;BME280;16990;49.056;9.240;2022-09-25T11:24:05;98308.69;;;13.85;100.00
30182;BME280;16990;49.056;9.240;2022-09-25T11:26:57;98313.50;;;13.83;100.00
30182;BME280;16990;49.056;9.240;2022-09-25T11:29:55;98314.91;;;14.11;100.00
30182;BME280;16990;49.056;9.240;2022-09-25T11:32:48;98313.56;;;14.14;100.00
30182;BME280;16990;49.056;9.240;2022-09-25T11:35:43;98310.34;;;14.47;100.00
30182;BME280;16990;49.056;9.240;2022-09-25T11:38:38;98311.97;;;14.38;100.00
30182;BME280;16990;49.056;9.240;2022-09-25T11:41:49;98307.13;;;14.51;100.00
30182;BME280;16990;49.056;9.240;2022-09-25T11:44:41;98302.84;;;14.34;100.00
30182;BME280;16990;49.056;9.240;2022-09-25T11:47:32;98302.31;;;14.58;100.00
30182;BME280;16990;49.056;9.240;2022-09-25T11:50:29;98309.31;;;14.49;100.00
30182;BME280;16990;49.056;9.240;2022-09-25T11:53:25;98301.25;;;14.59;100.00
30182;BME280;16990;49.056;9.240;2022-09-25T11:56:24;98290.75;;;14.62;100.00
30182;BME280;16990;49.056;9.240;2022-09-25T11:59:22;98297.75;;;14.63;100.00
30182;BME280;16990;49.056;9.240;2022-09-25T12:02:20;98298.81;;;14.57;100.00
30182;BME280;16990;49.056;9.240;2022-09-25T12:08:37;98281.31;;;14.75;100.00
30182;BME280;16990;49.056;9.240;2022-09-25T12:11:32;98292.63;;;14.57;100.00
30182;BME280;16990;49.056;9.240;2022-09-25T12:14:32;98278.06;;;14.78;100.00
30182;BME280;16990;49.056;9.240;2022-09-25T12:17:33;98281.31;;;14.75;100.00
30182;BME280;16990;49.056;9.240;2022-09-25T12:20:30;98282.16;;;14.65;100.00
30182;BME280;16990;49.056;9.240;2022-09-25T12:23:20;98278.09;;;14.58;99.99
30182;BME280;16990;49.056;9.240;2022-09-25T12:26:17;98272.72;;;14.58;99.67
30182;BME280;16990;49.056;9.240;2022-09-25T12:29:15;98265.19;;;14.65;98.16
30182;BME280;16990;49.056;9.240;2022-09-25T12:32:20;98275.94;;;14.60;98.11
30182;BME280;16990;49.056;9.240;2022-09-25T12:35:25;98279.72;;;14.59;99.46
30182;BME280;16990;49.056;9.240;2022-09-25T12:38:26;98273.78;;;14.62;99.26
30182;BME280;16990;49.056;9.240;2022-09-25T12:41:19;98268.09;;;14.89;97.50
30182;BME280;16990;49.056;9.240;2022-09-25T12:44:13;98264.03;;;14.92;98.47
30182;BME280;16990;49.056;9.240;2022-09-25T12:47:08;98269.69;;;14.95;97.51
30182;BME280;16990;49.056;9.240;2022-09-25T12:49:59;98267.88;;;14.75;99.12
30182;BME280;16990;49.056;9.240;2022-09-25T12:52:52;98271.09;;;14.72;97.77
30182;BME280;16990;49.056;9.240;2022-09-25T12:55:45;98276.44;;;14.87;98.20
30182;BME280;16990;49.056;9.240;2022-09-25T12:58:42;98274.34;;;14.64;98.10
30182;BME280;16990;49.056;9.240;2022-09-25T13:01:37;98273.25;;;14.65;100.00
30182;BME280;16990;49.056;9.240;2022-09-25T13:07:38;98268.41;;;14.77;98.62
30182;BME280;16990;49.056;9.240;2022-09-25T13:10:30;98263.00;;;14.72;98.12
30182;BME280;16990;49.056;9.240;2022-09-25T13:13:20;98250.66;;;14.66;97.75
30182;BME280;16990;49.056;9.240;2022-09-25T13:16:08;98268.13;;;14.79;96.37
30182;BME280;16990;49.056;9.240;2022-09-25T13:19:09;98266.22;;;14.95;97.47
30182;BME280;16990;49.056;9.240;2022-09-25T13:21:58;98266.25;;;14.84;98.18
30182;BME280;16990;49.056;9.240;2022-09-25T13:24:51;98262.47;;;14.75;95.47
30182;BME280;16990;49.056;9.240;2022-09-25T13:27:43;98268.34;;;14.98;95.77
30182;BME280;16990;49.056;9.240;2022-09-25T13:30:31;98271.56;;;15.05;95.60
30182;BME280;16990;49.056;9.240;2022-09-25T13:33:19;98277.22;;;15.08;95.28
30182;BME280;16990;49.056;9.240;2022-09-25T13:36:17;98269.63;;;15.10;94.15
30182;BME280;16990;49.056;9.240;2022-09-25T13:39:18;98269.69;;;15.00;95.53
30182;BME280;16990;49.056;9.240;2022-09-25T13:42:26;98268.09;;;14.89;96.23
30182;BME280;16990;49.056;9.240;2022-09-25T13:45:30;98264.56;;;14.94;96.97
30182;BME280;16990;49.056;9.240;2022-09-25T13:48:33;98259.81;;;14.70;97.07
30182;BME280;16990;49.056;9.240;2022-09-25T13:51:32;98262.47;;;14.80;97.60
30182;BME280;16990;49.056;9.240;2022-09-25T13:54:24;98264.84;;;15.02;97.13
30182;BME280;16990;49.056;9.240;2022-09-25T13:57:14;98257.19;;;15.25;94.39
30182;BME280;16990;49.056;9.240;2022-09-25T14:00:03;98270.16;;;15.23;93.10
30182;BME280;16990;49.056;9.240;2022-09-25T14:02:51;98273.66;;;15.13;95.89
30182;BME280;16990;49.056;9.240;2022-09-25T14:05:45;98256.09;;;15.31;96.18
30182;BME280;16990;49.056;9.240;2022-09-25T14:08:33;98259.09;;;15.24;93.18
30182;BME280;16990;49.056;9.240;2022-09-25T14:11:24;98255.34;;;15.25;94.71
30182;BME280;16990;49.056;9.240;2022-09-25T14:14:24;98265.13;;;14.96;97.02
30182;BME280;16990;49.056;9.240;2022-09-25T14:17:14;98263.03;;;14.57;100.00
30182;BME280;16990;49.056;9.240;2022-09-25T14:20:04;98267.06;;;14.34;100.00
30182;BME280;16990;49.056;9.240;2022-09-25T14:22:54;98264.09;;;14.51;100.00
30182;BME280;16990;49.056;9.240;2022-09-25T14:25:42;98264.66;;;14.63;100.00
30182;BME280;16990;49.056;9.240;2022-09-25T14:28:32;98253.91;;;14.27;100.00
30182;BME280;16990;49.056;9.240;2022-09-25T14:31:33;98252.81;;;14.49;100.00
30182;BME280;16990;49.056;9.240;2022-09-25T14:34:43;98248.75;;;14.46;100.00
30182;BME280;16990;49.056;9.240;2022-09-25T14:37:47;98248.78;;;14.61;100.00
30182;BME280;16990;49.056;9.240;2022-09-25T14:40:39;98252.00;;;14.68;100.00
30182;BME280;16990;49.056;9.240;2022-09-25T14:43:54;98255.53;;;14.54;100.00
30182;BME280;16990;49.056;9.240;2022-09-25T14:46:48;98256.31;;;14.44;100.00
30182;BME280;16990;49.056;9.240;2022-09-25T14:49:40;98260.06;;;13.97;100.00
30182;BME280;16990;49.056;9.240;2022-09-25T14:52:30;98266.53;;;14.06;100.00
30182;BME280;16990;49.056;9.240;2022-09-25T14:55:20;98263.28;;;13.94;100.00
30182;BME280;16990;49.056;9.240;2022-09-25T14:58:12;98267.31;;;13.91;100.00
30182;BME280;16990;49.056;9.240;2022-09-25T15:01:10;98264.63;;;14.01;100.00
30182;BME280;16990;49.056;9.240;2022-09-25T15:04:02;98268.13;;;13.87;100.00